Flight Number: AVA1083 Duration: 0:45
Departure: Burgas (LBBG) at 04:00 Distance: 181.847 Nm
Arrival: Sofia (LBSF) at 04:45 Equipment: ATR72

Weather Information
Burgas, Bulgaria (LBBG) 42-29N 027-29E 28M Jul 13, 2020 - 07:30 PM EDT / 2020.07.13 2330 UTC
Wind: from the N (010 degrees) at 8 MPH (7 KT):0
Visibility: greater than 7 mile(s):0 Temperature: 62 F (17 C) Dew Point: 46 F (8 C) Relative Humidity: 55% Pressure (altimeter): 30.00 in. Hg (1016 hPa)
ob: LBBG 132330Z 01007KT CAVOK 17/08 Q1016 NOSIG cycle: 23
Sunrise: 02:48 Sunset: 17:42 (UTC)

Sofia Observ. , Bulgaria (LBSF) 42-39N 023-23E 595M Jul 13, 2020 - 07:30 PM EDT / 2020.07.13 2330 UTC
Wind: from the ENE (060 degrees) at 5 MPH (4 KT):0
Visibility: greater than 7 mile(s):0
Sky conditions: mostly cloudy Temperature: 59 F (15 C) Dew Point: 48 F (9 C) Relative Humidity: 67% Pressure (altimeter): 30.06 in. Hg (1018 hPa)
ob: LBSF 132330Z 06004KT 9999 BKN074 15/09 Q1018 NOSIG cycle: 23
Sunrise: 03:04 Sunset: 17:59 (UTC)

TAF:2020/07/13 18:18 TAF LBSF 131700Z 1318/1418 05010KT 9999 SCT050 BECMG 1319/1321 VRB04KT PROB40 TEMPO 1402/1405 3000 BR SCT007 BECMG 1407/1409 11010KT

This route has never been flown.

Route map